Flight Track Log - Related Links

Times and Time Zones

All times are in EDT time to prevent confusion due to time zone crossing. See the B-18725 flight status page for this flight to view local times or setup timezone preferences in your user account.

Time Position Orientation Groundspeed Altitude Reporting Facility
EDT Latitude Longitude Course Direction KTS MPH feet Rate Location/Type
Sat 07:15:27 AM 25.0920 121.2400 49° Northeast 175 201 400  Level FlightAware ADS-B
Sat 07:15:52 AM 25.1050 121.2580 51° Northeast 180 207 1,100 1,418 Climbing FlightAware ADS-B
Sat 07:16:22 AM 25.1230 121.2800 48° Northeast 202 232 1,700 982 Climbing FlightAware ADS-B
Sat 07:16:47 AM 25.1390 121.3010 50° Northeast 230 265 2,000 750 Climbing FlightAware ADS-B
Sat 07:17:02 AM 25.1500 121.3150 49° Northeast 246 283 2,200 1,067 Climbing FlightAware ADS-B
Sat 07:17:32 AM 25.1740 121.3470 50° Northeast 275 316 2,800 1,745 Climbing FlightAware ADS-B
Sat 07:17:57 AM 25.1940 121.3720 49° Northeast 281 323 3,800 2,250 Climbing FlightAware ADS-B
Sat 07:18:12 AM 25.2080 121.3900 49° Northeast 287 330 4,300 2,133 Climbing FlightAware ADS-B
Sat 07:18:42 AM 25.2350 121.4250 50° Northeast 301 346 5,400 2,250 Climbing FlightAware ADS-B
Sat 07:18:52 AM 25.2440 121.4370 50° Northeast 303 349 5,800 2,400 Climbing FlightAware ADS-B
Sat 07:19:22 AM 25.2710 121.4720 50° Northeast 307 353 7,000 2,400 Climbing FlightAware ADS-B
Sat 07:19:37 AM 25.2830 121.4900 54° Northeast 309 356 7,600 2,400 Climbing FlightAware ADS-B
Sat 07:19:52 AM 25.2900 121.5150 73° East 312 359 8,200 2,100 Climbing FlightAware ADS-B
Sat 07:20:17 AM 25.2840 121.5510 100° East 312 359 9,000 2,100 Climbing FlightAware ADS-B
Sat 07:20:32 AM 25.2680 121.5710 131° Southeast 310 357 9,600 2,200 Climbing FlightAware ADS-B
Sat 07:20:47 AM 25.2510 121.5820 150° Southeast 311 358 10,100 1,418 Climbing FlightAware ADS-B
Sat 07:21:27 AM 25.1960 121.6090 156° South 343 395 10,900 1,129 Climbing FlightAware ADS-B
Sat 07:22:12 AM 25.1240 121.6440 156° South 388 447 11,700 1,200 Climbing FlightAware ADS-B
Sat 07:22:52 AM 25.0570 121.6780 155° Southeast 417 480 12,600 1,725 Climbing FlightAware ADS-B
Sat 07:23:32 AM 24.9880 121.7130 155° Southeast 428 493 14,000 1,271 Climbing FlightAware ADS-B
Sat 07:24:17 AM 24.9140 121.7510 155° Southeast 431 496 14,400 282 Climbing FlightAware ADS-B
Sat 07:24:57 AM 24.8520 121.7820 156° South 431 496 14,400  Level FlightAware ADS-B
Sat 07:25:37 AM 24.7910 121.8140 155° Southeast 431 496 14,400 2,438 Level FlightAware ADS-B
Sat 07:28:00 AM 24.5367 121.6685 208° Southwest  Level Estimated
Sat 07:29:00 AM 24.4299 121.6076 207° Southwest  Level Estimated
Sat 07:30:00 AM 24.3231 121.5468 207° Southwest  Level Estimated
Sat 07:31:00 AM 24.2163 121.4861 207° Southwest  Level Estimated
Sat 07:32:00 AM 24.1095 121.4255 207° Southwest  Level Estimated
Sat 07:32:52 AM 23.8720 121.8420 207° Southwest 434 499 33,700  Level FlightAware ADS-B
Sat 07:33:52 AM 23.7520 121.7960 199° South 431 496 34,000 180 Climbing FlightAware ADS-B
Sat 07:34:32 AM 23.6900 121.7720 200° South 431 496 34,000  Level FlightAware ADS-B
Sat 07:35:17 AM 23.5960 121.7360 199° South 430 495 34,000  Level FlightAware ADS-B
Sat 07:35:47 AM 23.5380 121.7140 199° South 430 495 34,000  Level FlightAware ADS-B
Sat 07:36:37 AM 23.4500 121.6800 200° South 431 496 34,000  Level FlightAware ADS-B
Sat 07:37:17 AM 23.3670 121.6480 199° South 433 498 34,000  Level FlightAware ADS-B
Sat 07:38:17 AM 23.2580 121.6060 199° South 436 502 34,000  Level FlightAware ADS-B
Sat 07:38:57 AM 23.1750 121.5750 199° South 438 504 34,000  Level FlightAware ADS-B
Sat 07:39:42 AM 23.0920 121.5430 200° South 439 505 34,000  Level FlightAware ADS-B
Sat 07:40:22 AM 23.0150 121.5140 199° South 441 507 34,000  Level FlightAware ADS-B
Sat 07:41:02 AM 22.9420 121.4860 199° South 442 509 34,000  Level FlightAware ADS-B
Sat 07:41:37 AM 22.8700 121.4590 199° South 442 509 34,000  Level FlightAware ADS-B
Sat 07:42:27 AM 22.7730 121.4220 199° South 442 509 34,000  Level FlightAware ADS-B
Sat 07:43:12 AM 22.6910 121.3910 199° South 442 509 34,000  Level FlightAware ADS-B
Sat 07:43:52 AM 22.6140 121.3620 199° South 443 510 34,000  Level FlightAware ADS-B
Sat 07:44:32 AM 22.5320 121.3310 199° South 445 512 34,000  Level FlightAware ADS-B
Sat 07:45:07 AM 22.4620 121.3040 200° South 447 514 34,000  Level FlightAware ADS-B
Sat 07:46:12 AM 22.3370 121.2570 199° South 450 518 34,000  Level FlightAware ADS-B
Sat 07:46:52 AM 22.2560 121.2270 199° South 452 520 34,000  Level FlightAware ADS-B
Sat 07:47:37 AM 22.1710 121.1950 199° South 452 520 34,000  Level FlightAware ADS-B
Sat 07:48:17 AM 22.0900 121.1640 200° South 453 521 34,000  Level FlightAware ADS-B
Sat 07:48:57 AM 22.0050 121.1320 199° South 455 524 34,000  Level FlightAware ADS-B
Sat 07:49:52 AM 21.8970 121.0920 199° South 455 524 34,000  Level FlightAware ADS-B
Sat 07:50:32 AM 21.8160 121.0620 199° South 455 524 34,000  Level FlightAware ADS-B
Sat 07:51:17 AM 21.7360 121.0310 200° South 458 527 34,000  Level FlightAware ADS-B
Sat 07:52:02 AM 21.6390 120.9950 199° South 461 531 34,000  Level FlightAware ADS-B
Sat 07:52:42 AM 21.5570 120.9650 199° South 462 532 34,000  Level FlightAware ADS-B
Sat 07:53:27 AM 21.4620 120.9300 199° South 460 529 34,000  Level FlightAware ADS-B
Sat 07:54:07 AM 21.3890 120.9030 199° South 457 526 34,000  Level FlightAware ADS-B
Sat 07:54:52 AM 21.2970 120.8680 200° South 455 524 34,000  Level FlightAware ADS-B
Sat 07:55:47 AM 21.1880 120.8280 199° South 452 520 34,000  Level FlightAware ADS-B
Sat 07:56:27 AM 21.1080 120.7980 199° South 451 519 34,000  Level FlightAware ADS-B
Sat 07:57:07 AM 21.0310 120.7700 199° South 450 518 34,000  Level FlightAware ADS-B
Sat 07:57:42 AM 20.9530 120.7540 191° South 459 528 34,000  Level FlightAware ADS-B
Sat 07:58:37 AM 20.8390 120.7450 184° South 461 531 34,000  Level FlightAware ADS-B
Sat 07:59:07 AM 20.7690 120.7390 185° South 461 531 34,000  Level FlightAware ADS-B
Sat 07:59:57 AM 20.6680 120.7310 184° South 461 531 34,000  Level FlightAware ADS-B
Sat 08:00:37 AM 20.5820 120.7250 184° South 461 531 34,000  Level FlightAware ADS-B
Sat 08:01:12 AM 20.5090 120.7180 185° South 461 531 34,000  Level FlightAware ADS-B
Sat 08:02:02 AM 20.4020 120.7090 185° South 462 532 34,000  Level FlightAware ADS-B
Sat 08:02:42 AM 20.3130 120.7020 184° South 462 532 34,000  Level FlightAware ADS-B
Sat 08:03:27 AM 20.2230 120.6950 184° South 462 532 34,000  Level FlightAware ADS-B
Sat 08:04:12 AM 20.1370 120.6880 184° South 463 533 34,000  Level FlightAware ADS-B
Sat 08:04:52 AM 20.0640 120.6830 184° South 463 533 34,000  Level FlightAware ADS-B
Sat 08:07:00 AM 19.8400 120.5499 209° Southwest  Level Estimated
Sat 08:07:02 AM 19.7630 120.6430 209° Southwest 458 527 34,000  Level FlightAware ADS-B
Sat 08:07:57 AM 19.6600 120.6150 194° South 458 527 34,000  Level FlightAware ADS-B
Sat 08:08:32 AM 19.5810 120.5910 196° South 458 527 34,000  Level FlightAware ADS-B
Sat 08:09:37 AM 19.4550 120.5470 198° South 458 527 34,000  Level FlightAware ADS-B
Sat 08:10:22 AM 19.3550 120.5160 196° South 460 529 34,000  Level FlightAware ADS-B
Sat 08:11:07 AM 19.2630 120.4990 190° South 462 532 34,000  Level FlightAware ADS-B
Sat 08:11:47 AM 19.1910 120.4870 189° South 462 532 34,000  Level FlightAware ADS-B
Sat 08:12:37 AM 19.1010 120.4720 189° South 462 532 34,000  Level FlightAware ADS-B
Sat 08:13:17 AM 19.0290 120.4600 189° South 462 532 34,000  Level FlightAware ADS-B
Sat 08:13:57 AM 18.9570 120.4480 189° South 462 532 34,000  Level FlightAware ADS-B
Sat 08:14:37 AM 18.8860 120.4360 189° South 462 532 34,000  Level FlightAware ADS-B
Sat 08:15:17 AM 18.8140 120.4240 189° South 462 532 34,000  Level FlightAware ADS-B
Sat 08:16:07 AM 18.7240 120.4090 189° South 462 532 34,000  Level FlightAware ADS-B
Sat 08:16:47 AM 18.6520 120.3970 189° South 462 532 34,000  Level FlightAware ADS-B
Sat 08:17:27 AM 18.5810 120.3850 189° South 462 532 34,000  Level FlightAware ADS-B
Sat 08:18:07 AM 18.5090 120.3730 189° South 462 532 34,000  Level FlightAware ADS-B
Sat 08:18:47 AM 18.4370 120.3610 189° South 462 532 34,000  Level FlightAware ADS-B
Sat 08:19:37 AM 18.3470 120.3460 189° South 462 532 34,000  Level FlightAware ADS-B
Sat 08:20:17 AM 18.2760 120.3340 189° South 462 532 34,000 23 Level FlightAware ADS-B
Sat 08:22:00 AM 18.0975 120.2248 210° Southwest  Level Estimated
Sat 08:23:00 AM 17.9935 120.1613 210° Southwest  Level Estimated
Sat 08:24:00 AM 17.8894 120.0978 210° Southwest  Level Estimated
Sat 08:25:00 AM 17.7854 120.0345 210° Southwest  Level Estimated
Sat 08:26:00 AM 17.6813 119.9712 210° Southwest  Level Estimated
Sat 08:27:00 AM 17.5772 119.9080 210° Southwest  Level Estimated
Sat 08:28:00 AM 17.4731 119.8448 210° Southwest  Level Estimated
Sat 08:29:00 AM 17.3689 119.7818 210° Southwest  Level Estimated
Sat 08:30:00 AM 17.2648 119.7188 210° Southwest  Level Estimated
Sat 08:31:00 AM 17.1606 119.6559 210° Southwest  Level Estimated
Sat 08:32:00 AM 17.0564 119.5930 210° Southwest  Level Estimated
Sat 08:33:00 AM 16.9522 119.5302 210° Southwest  Level Estimated
Sat 08:34:00 AM 16.8479 119.4675 210° Southwest  Level Estimated
Sat 08:35:00 AM 16.7437 119.4048 210° Southwest  Level Estimated
Sat 08:36:00 AM 16.6394 119.3422 210° Southwest  Level Estimated
Sat 08:37:00 AM 16.5351 119.2797 210° Southwest  Level Estimated
Sat 08:38:00 AM 16.4308 119.2173 210° Southwest  Level Estimated
Sat 08:39:00 AM 16.3264 119.1549 210° Southwest  Level Estimated
Sat 08:40:00 AM 16.2221 119.0926 210° Southwest  Level Estimated
Sat 08:41:00 AM 16.1177 119.0304 210° Southwest  Level Estimated
Sat 08:42:00 AM 16.0133 118.9682 210° Southwest  Level Estimated
Sat 08:43:00 AM 15.9089 118.9061 210° Southwest  Level Estimated
Sat 08:44:00 AM 15.8045 118.8440 210° Southwest  Level Estimated
Sat 08:45:00 AM 15.7001 118.7820 210° Southwest  Level Estimated
Sat 08:46:00 AM 15.5956 118.7201 210° Southwest  Level Estimated
Sat 08:47:00 AM 15.4911 118.6583 210° Southwest  Level Estimated
Sat 08:48:00 AM 15.3867 118.5965 210° Southwest  Level Estimated
Sat 08:49:00 AM 15.2821 118.5347 210° Southwest  Level Estimated
Sat 08:50:00 AM 15.1776 118.4731 210° Southwest  Level Estimated
Sat 08:51:00 AM 15.0731 118.4115 210° Southwest  Level Estimated
Sat 08:52:00 AM 14.9685 118.3499 210° Southwest  Level Estimated
Sat 08:53:00 AM 14.8639 118.2884 210° Southwest  Level Estimated
Sat 08:54:00 AM 14.7593 118.2270 210° Southwest  Level Estimated
Sat 08:55:00 AM 14.6547 118.1656 210° Southwest  Level Estimated
Sat 08:56:00 AM 14.5501 118.1043 210° Southwest  Level Estimated
Sat 08:57:00 AM 14.4455 118.0430 210° Southwest  Level Estimated
Sat 08:58:00 AM 14.3408 117.9818 210° Southwest  Level Estimated
Sat 08:59:00 AM 14.2361 117.9207 210° Southwest  Level Estimated
Sat 09:00:00 AM 14.1314 117.8596 210° Southwest  Level Estimated
Sat 09:01:00 AM 14.0267 117.7986 209° Southwest  Level Estimated
Sat 09:02:00 AM 13.9220 117.7376 209° Southwest  Level Estimated
Sat 09:03:00 AM 13.8173 117.6767 209° Southwest  Level Estimated
Sat 09:04:00 AM 13.7126 117.6158 209° Southwest  Level Estimated
Sat 09:05:00 AM 13.6078 117.5550 209° Southwest  Level Estimated
Sat 09:06:00 AM 13.5030 117.4943 209° Southwest  Level Estimated
Sat 09:07:00 AM 13.3982 117.4336 209° Southwest  Level Estimated
Sat 09:08:00 AM 13.2934 117.3729 209° Southwest  Level Estimated
Sat 09:09:00 AM 13.1886 117.3123 209° Southwest  Level Estimated
Sat 09:10:00 AM 13.0837 117.2518 209° Southwest  Level Estimated
Sat 09:11:00 AM 12.9789 117.1913 209° Southwest  Level Estimated
Sat 09:12:00 AM 12.8740 117.1309 209° Southwest  Level Estimated
Sat 09:13:00 AM 12.7692 117.0705 209° Southwest  Level Estimated
Sat 09:14:00 AM 12.6643 117.0101 209° Southwest  Level Estimated
Sat 09:15:00 AM 12.5594 116.9498 209° Southwest  Level Estimated
Sat 09:16:00 AM 12.4544 116.8896 209° Southwest  Level Estimated
Sat 09:17:00 AM 12.3495 116.8294 209° Southwest  Level Estimated
Sat 09:18:00 AM 12.2446 116.7693 209° Southwest  Level Estimated
Sat 09:19:00 AM 12.1396 116.7092 209° Southwest  Level Estimated
Sat 09:20:00 AM 12.0346 116.6491 209° Southwest  Level Estimated
Sat 09:21:00 AM 11.9297 116.5891 209° Southwest  Level Estimated
Sat 09:22:00 AM 11.8247 116.5292 209° Southwest  Level Estimated
Sat 09:23:00 AM 11.7197 116.4693 209° Southwest  Level Estimated
Sat 09:24:00 AM 11.6146 116.4094 209° Southwest  Level Estimated
Sat 09:25:00 AM 11.5096 116.3496 209° Southwest  Level Estimated
Sat 09:26:00 AM 11.4046 116.2898 209° Southwest  Level Estimated
Sat 09:27:00 AM 11.2995 116.2301 209° Southwest  Level Estimated
Sat 09:28:00 AM 11.1944 116.1704 209° Southwest  Level Estimated
Sat 09:29:00 AM 11.0893 116.1107 209° Southwest  Level Estimated
Sat 09:30:00 AM 10.9843 116.0511 209° Southwest  Level Estimated
Sat 09:31:00 AM 10.8792 115.9916 209° Southwest  Level Estimated
Sat 09:32:00 AM 10.7740 115.9321 209° Southwest  Level Estimated
Sat 09:33:00 AM 10.6689 115.8726 209° Southwest  Level Estimated
Sat 09:34:00 AM 10.5638 115.8131 209° Southwest  Level Estimated
Sat 09:35:00 AM 10.4586 115.7538 209° Southwest  Level Estimated
Sat 09:36:00 AM 10.3534 115.6944 209° Southwest  Level Estimated
Sat 09:37:00 AM 10.2483 115.6351 209° Southwest  Level Estimated
Sat 09:38:00 AM 10.1431 115.5758 209° Southwest  Level Estimated
Sat 09:39:00 AM 10.0379 115.5166 209° Southwest  Level Estimated
Sat 09:40:00 AM 9.9327 115.4574 209° Southwest  Level Estimated
Sat 09:41:00 AM 9.8275 115.3982 209° Southwest  Level Estimated
Sat 09:42:00 AM 9.7223 115.3391 209° Southwest  Level Estimated
Sat 09:43:00 AM 9.6171 115.2800 209° Southwest  Level Estimated
Sat 09:44:00 AM 9.5118 115.2210 209° Southwest  Level Estimated
Sat 09:45:00 AM 9.4066 115.1620 209° Southwest  Level Estimated
Sat 09:46:00 AM 9.3013 115.1030 209° Southwest  Level Estimated
Sat 09:46:22 AM 7.5890 117.2220 209° Southwest 489 563 36,000  Level FlightAware ADS-B
Sat 09:47:00 AM 9.1960 115.0441 209° Southwest  Level Estimated
Sat 09:47:07 AM 7.5150 117.1700 215° Southwest 489 563 36,000  Level FlightAware ADS-B
Sat 09:47:52 AM 7.4180 117.1010 215° Southwest 489 563 36,000  Level FlightAware ADS-B
Sat 09:48:32 AM 7.3460 117.0500 215° Southwest 488 562 36,000  Level FlightAware ADS-B
Sat 09:49:17 AM 7.2630 116.9920 215° Southwest 489 563 36,000  Level FlightAware ADS-B
Sat 09:49:57 AM 7.1880 116.9390 215° Southwest 489 563 36,000  Level FlightAware ADS-B
Sat 09:50:42 AM 7.1030 116.8790 215° Southwest 488 562 36,000  Level FlightAware ADS-B
Sat 09:51:22 AM 7.0290 116.8270 215° Southwest 488 562 36,000  Level FlightAware ADS-B
Sat 09:52:07 AM 6.9450 116.7680 215° Southwest 488 562 36,000  Level FlightAware ADS-B
Sat 09:52:47 AM 6.8710 116.7160 215° Southwest 488 562 36,000  Level FlightAware ADS-B
Sat 09:53:32 AM 6.7870 116.6570 215° Southwest 488 562 36,000  Level FlightAware ADS-B
Sat 09:54:12 AM 6.7120 116.6040 215° Southwest 488 562 36,000  Level FlightAware ADS-B
Sat 09:54:52 AM 6.6390 116.5520 215° Southwest 487 560 36,000  Level FlightAware ADS-B
Sat 09:55:37 AM 6.5570 116.4950 215° Southwest 486 559 36,000  Level FlightAware ADS-B
Sat 09:56:17 AM 6.4830 116.4430 215° Southwest 487 560 36,000  Level FlightAware ADS-B
Sat 09:57:02 AM 6.3980 116.3830 215° Southwest 486 559 36,000  Level FlightAware ADS-B
Sat 09:57:42 AM 6.3240 116.3310 215° Southwest 487 560 36,000  Level FlightAware ADS-B
Sat 09:58:22 AM 6.2510 116.2800 215° Southwest 488 562 36,000  Level FlightAware ADS-B
Sat 09:59:07 AM 6.1680 116.2220 215° Southwest 488 562 36,000  Level FlightAware ADS-B
Sat 09:59:47 AM 6.0940 116.1710 214° Southwest 486 559 36,000  Level FlightAware ADS-B
Sat 10:00:27 AM 6.0210 116.1190 215° Southwest 487 560 36,000  Level FlightAware ADS-B
Sat 10:01:12 AM 5.9350 116.0590 215° Southwest 488 562 36,000  Level FlightAware ADS-B
Sat 10:01:52 AM 5.8620 116.0050 216° Southwest 489 563 36,000  Level FlightAware ADS-B
Sat 10:02:37 AM 5.7840 115.9440 218° Southwest 489 563 36,000  Level FlightAware ADS-B
Sat 10:03:17 AM 5.7120 115.8860 219° Southwest 491 565 36,000  Level FlightAware ADS-B
Sat 10:04:02 AM 5.6300 115.8210 218° Southwest 492 566 36,000  Level FlightAware ADS-B
Sat 10:04:42 AM 5.5580 115.7650 218° Southwest 491 565 36,000  Level FlightAware ADS-B
Sat 10:05:22 AM 5.4850 115.7080 218° Southwest 490 564 36,000  Level FlightAware ADS-B
Sat 10:06:07 AM 5.4070 115.6470 218° Southwest 490 564 36,000  Level FlightAware ADS-B
Sat 10:06:47 AM 5.3350 115.5910 218° Southwest 492 566 36,000  Level FlightAware ADS-B
Sat 10:07:32 AM 5.2520 115.5250 218° Southwest 492 566 36,000  Level FlightAware ADS-B
Sat 10:08:12 AM 5.1810 115.4690 218° Southwest 491 565 36,000  Level FlightAware ADS-B
Sat 10:08:52 AM 5.1090 115.4130 218° Southwest 490 564 36,000  Level FlightAware ADS-B
Sat 10:09:37 AM 5.0300 115.3510 218° Southwest 490 564 36,000  Level FlightAware ADS-B
Sat 10:10:17 AM 4.9580 115.2950 218° Southwest 490 564 36,000  Level FlightAware ADS-B
Sat 10:11:02 AM 4.8760 115.2300 218° Southwest 491 565 36,000  Level FlightAware ADS-B
Sat 10:11:42 AM 4.8060 115.1750 218° Southwest 491 565 36,000  Level FlightAware ADS-B
Sat 10:12:22 AM 4.7430 115.1230 219° Southwest 491 565 36,000  Level FlightAware ADS-B
Sat 10:13:07 AM 4.6590 115.0550 219° Southwest 493 567 36,000  Level FlightAware ADS-B
Sat 10:13:47 AM 4.5880 114.9970 219° Southwest 494 568 36,000  Level FlightAware ADS-B
Sat 10:14:32 AM 4.5070 114.9320 219° Southwest 495 570 36,000  Level FlightAware ADS-B
Sat 10:15:12 AM 4.4360 114.8750 219° Southwest 497 572 36,000  Level FlightAware ADS-B
Sat 10:15:52 AM 4.3640 114.8190 218° Southwest 498 573 36,000  Level FlightAware ADS-B
Sat 10:16:37 AM 4.2810 114.7540 218° Southwest 499 574 36,000  Level FlightAware ADS-B
Sat 10:17:17 AM 4.2070 114.6960 218° Southwest 501 577 36,000  Level FlightAware ADS-B
Sat 10:18:02 AM 4.1260 114.6330 218° Southwest 502 578 36,000  Level FlightAware ADS-B
Sat 10:18:42 AM 4.0520 114.5750 218° Southwest 502 578 36,000  Level FlightAware ADS-B
Sat 10:19:22 AM 3.9790 114.5170 218° Southwest 500 575 36,000  Level FlightAware ADS-B
Sat 10:20:07 AM 3.8970 114.4540 217° Southwest 499 574 36,000  Level FlightAware ADS-B
Sat 10:20:47 AM 3.8230 114.3960 218° Southwest 499 574 36,000  Level FlightAware ADS-B
Sat 10:21:32 AM 3.7420 114.3320 218° Southwest 497 572 36,000  Level FlightAware ADS-B
Sat 10:22:12 AM 3.6720 114.2770 218° Southwest 497 572 36,000  Level FlightAware ADS-B
Sat 10:22:47 AM 3.6060 114.2250 218° Southwest 496 571 36,000  Level FlightAware ADS-B
Sat 10:23:32 AM 3.5320 114.1680 218° Southwest 496 571 36,000  Level FlightAware ADS-B
Sat 10:24:12 AM 3.4710 114.1200 218° Southwest 496 571 36,000  Level FlightAware ADS-B
Sat 10:24:52 AM 3.4090 114.0710 218° Southwest 496 571 36,000  Level FlightAware ADS-B
Sat 10:25:42 AM 3.3320 114.0110 218° Southwest 496 571 36,000  Level FlightAware ADS-B
Sat 10:26:22 AM 3.2710 113.9630 218° Southwest 496 571 36,000  Level FlightAware ADS-B
Sat 10:27:02 AM 3.2090 113.9150 218° Southwest 496 571 36,000  Level FlightAware ADS-B
Sat 10:27:42 AM 3.1480 113.8670 218° Southwest 496 571 36,000  Level FlightAware ADS-B
Sat 10:28:22 AM 3.0860 113.8190 218° Southwest 496 571 36,000  Level FlightAware ADS-B
Sat 10:29:12 AM 3.0090 113.7590 218° Southwest 496 571 36,000  Level FlightAware ADS-B
Sat 10:29:52 AM 2.9480 113.7110 218° Southwest 496 571 36,000  Level FlightAware ADS-B
Sat 10:30:32 AM 2.8860 113.6630 218° Southwest 496 571 36,000  Level FlightAware ADS-B
Sat 10:31:12 AM 2.8250 113.6140 219° Southwest 496 571 36,000  Level FlightAware ADS-B
Sat 10:31:52 AM 2.7630 113.5660 218° Southwest 496 571 36,000  Level FlightAware ADS-B
Sat 10:32:32 AM 2.7020 113.5180 218° Southwest 496 571 36,000  Level FlightAware ADS-B
Sat 10:34:07 AM 2.3650 113.2560 218° Southwest 496 571 36,000  Level FlightAware ADS-B
Sat 10:34:42 AM 2.3100 113.2130 218° Southwest 496 571 36,000  Level FlightAware ADS-B
Sat 10:35:22 AM 2.2480 113.1650 218° Southwest 496 571 36,000  Level FlightAware ADS-B
Sat 10:36:02 AM 2.1870 113.1170 218° Southwest 496 571 36,000  Level FlightAware ADS-B
Sat 10:36:52 AM 2.1100 113.0570 218° Southwest 496 571 36,000  Level FlightAware ADS-B
Sat 10:37:32 AM 2.0490 113.0090 218° Southwest 496 571 36,000  Level FlightAware ADS-B
Sat 10:38:12 AM 1.9870 112.9600 218° Southwest 496 571 36,000  Level FlightAware ADS-B
Sat 10:39:02 AM 1.9100 112.9000 218° Southwest 496 571 36,000  Level FlightAware ADS-B
Sat 10:39:42 AM 1.8490 112.8520 218° Southwest 496 571 36,000  Level FlightAware ADS-B
Sat 10:40:22 AM 1.7870 112.8040 218° Southwest 496 571 36,000  Level FlightAware ADS-B
Sat 10:41:07 AM 1.5960 112.6560 218° Southwest 504 580 36,000  Level FlightAware ADS-B
Sat 10:41:42 AM 1.5340 112.6080 218° Southwest 504 580 36,000  Level FlightAware ADS-B
Sat 10:42:32 AM 1.4380 112.5330 218° Southwest 505 581 36,000  Level FlightAware ADS-B
Sat 10:43:07 AM 1.3770 112.4860 218° Southwest 505 581 36,000  Level FlightAware ADS-B
Sat 10:43:57 AM 1.2980 112.4240 218° Southwest 505 581 36,000  Level FlightAware ADS-B
Sat 10:44:37 AM 1.2360 112.3750 218° Southwest 505 581 36,000  Level FlightAware ADS-B
Sat 10:45:17 AM 1.1320 112.2960 217° Southwest 502 578 36,000  Level FlightAware ADS-B
Sat 10:46:02 AM 1.0520 112.2330 218° Southwest 497 572 36,000  Level FlightAware ADS-B
Sat 10:46:42 AM 0.9750 112.1740 217° Southwest 498 573 36,000  Level FlightAware ADS-B
Sat 10:47:22 AM 0.9030 112.1180 218° Southwest 500 575 36,000  Level FlightAware ADS-B
Sat 10:48:02 AM 0.8320 112.0630 218° Southwest 498 573 36,000  Level FlightAware ADS-B
Sat 10:48:57 AM 0.7350 111.9870 218° Southwest 497 572 36,000  Level FlightAware ADS-B
Sat 10:49:37 AM 0.6730 111.9390 218° Southwest 497 572 36,000  Level FlightAware ADS-B
Sat 10:50:27 AM 0.5960 111.8790 218° Southwest 497 572 36,000  Level FlightAware ADS-B
Sat 10:51:07 AM 0.5340 111.8310 218° Southwest 497 572 36,000  Level FlightAware ADS-B
Sat 10:51:47 AM 0.4730 111.7830 218° Southwest 497 572 36,000  Level FlightAware ADS-B
Sat 10:52:27 AM 0.4110 111.7350 218° Southwest 497 572 36,000  Level FlightAware ADS-B
Sat 10:53:07 AM 0.3500 111.6860 219° Southwest 497 572 36,000  Level FlightAware ADS-B
Sat 10:53:57 AM 0.2730 111.6260 218° Southwest 497 572 36,000  Level FlightAware ADS-B
Sat 10:54:37 AM 0.2110 111.5780 218° Southwest 497 572 36,000  Level FlightAware ADS-B
Sat 10:55:17 AM 0.1490 111.5300 218° Southwest 497 572 36,000  Level FlightAware ADS-B
Sat 10:55:57 AM 0.0880 111.4820 218° Southwest 497 572 36,000  Level FlightAware ADS-B
Sat 10:56:37 AM 0.0260 111.4340 218° Southwest 497 572 36,000  Level FlightAware ADS-B
Sat 10:57:17 AM -0.0350 111.3860 218° Southwest 497 572 36,000  Level FlightAware ADS-B
Sat 10:58:07 AM -0.1120 111.3250 218° Southwest 497 572 36,000 -485 Level FlightAware ADS-B
Sat 11:00:00 AM -0.2913 111.1865 218° Southwest  Level Estimated
Sat 11:01:00 AM -0.3864 111.1130 218° Southwest  Level Estimated
Sat 11:02:00 AM -0.4816 111.0395 218° Southwest  Level Estimated
Sat 11:03:00 AM -0.5768 110.9659 218° Southwest  Level Estimated
Sat 11:04:00 AM -0.6720 110.8924 218° Southwest  Level Estimated
Sat 11:05:00 AM -0.7672 110.8188 218° Southwest  Level Estimated
Sat 11:06:00 AM -0.8623 110.7453 218° Southwest  Level Estimated
Sat 11:07:00 AM -0.9575 110.6717 218° Southwest  Level Estimated
Sat 11:08:00 AM -1.0527 110.5982 218° Southwest  Level Estimated
Sat 11:09:00 AM -1.1479 110.5246 218° Southwest  Level Estimated
Sat 11:10:00 AM -1.2430 110.4511 218° Southwest  Level Estimated
Sat 11:11:00 AM -1.3382 110.3775 218° Southwest  Level Estimated
Sat 11:12:00 AM -1.4334 110.3039 218° Southwest  Level Estimated
Sat 11:13:00 AM -1.5285 110.2303 218° Southwest  Level Estimated
Sat 11:14:00 AM -1.6237 110.1568 218° Southwest  Level Estimated
Sat 11:15:00 AM -1.7189 110.0832 218° Southwest  Level Estimated
Sat 11:16:00 AM -1.8140 110.0096 218° Southwest  Level Estimated
Sat 11:17:00 AM -1.9092 109.9360 218° Southwest  Level Estimated
Sat 11:18:00 AM -2.0043 109.8623 218° Southwest  Level Estimated
Sat 11:19:00 AM -2.0995 109.7887 218° Southwest  Level Estimated
Sat 11:20:00 AM -2.1946 109.7151 218° Southwest  Level Estimated
Sat 11:21:00 AM -2.2898 109.6414 218° Southwest  Level Estimated
Sat 11:22:00 AM -2.3849 109.5678 218° Southwest  Level Estimated
Sat 11:23:00 AM -2.4800 109.4941 218° Southwest  Level Estimated
Sat 11:24:00 AM -2.5752 109.4205 218° Southwest  Level Estimated
Sat 11:25:00 AM -2.6703 109.3468 218° Southwest  Level Estimated
Sat 11:26:00 AM -2.7654 109.2731 218° Southwest  Level Estimated
Sat 11:27:00 AM -2.8605 109.1994 218° Southwest  Level Estimated
Sat 11:28:00 AM -2.9556 109.1256 218° Southwest  Level Estimated
Sat 11:29:00 AM -3.0507 109.0519 218° Southwest  Level Estimated
Sat 11:30:00 AM -3.1458 108.9782 218° Southwest  Level Estimated
Sat 11:31:00 AM -3.2409 108.9044 218° Southwest  Level Estimated
Sat 11:32:00 AM -3.3360 108.8306 218° Southwest  Level Estimated
Sat 11:33:00 AM -3.4311 108.7569 218° Southwest  Level Estimated
Sat 11:34:00 AM -3.5262 108.6831 218° Southwest  Level Estimated
Sat 11:35:00 AM -3.6212 108.6092 218° Southwest  Level Estimated
Sat 11:36:00 AM -3.7163 108.5354 218° Southwest  Level Estimated
Sat 11:37:00 AM -3.8114 108.4615 218° Southwest  Level Estimated
Sat 11:38:00 AM -3.9064 108.3877 218° Southwest  Level Estimated
Sat 11:39:00 AM -4.0015 108.3138 218° Southwest  Level Estimated
Sat 11:40:00 AM -4.0965 108.2399 218° Southwest  Level Estimated
Sat 11:41:00 AM -4.1915 108.1660 218° Southwest  Level Estimated
Sat 11:42:00 AM -4.2866 108.0920 218° Southwest  Level Estimated
Sat 11:43:00 AM -4.3816 108.0181 218° Southwest  Level Estimated
Sat 11:44:00 AM -4.4766 107.9441 218° Southwest  Level Estimated
Sat 11:45:00 AM -4.5716 107.8701 218° Southwest  Level Estimated
Sat 11:46:00 AM -4.6666 107.7961 218° Southwest  Level Estimated
Sat 11:47:00 AM -4.7616 107.7221 218° Southwest  Level Estimated
Sat 11:48:00 AM -4.8566 107.6480 218° Southwest  Level Estimated
Sat 11:48:02 AM -5.7760 107.3270 218° Southwest 353 406 11,400  Level FlightAware ADS-B
Sat 11:48:47 AM -5.8190 107.2750 230° Southwest 321 369 10,300 -1,412 Descending FlightAware ADS-B
Sat 11:49:27 AM -5.8570 107.2280 231° Southwest 295 339 9,400 -1,286 Descending FlightAware ADS-B
Sat 11:49:57 AM -5.8810 107.1990 230° Southwest 292 336 8,800 -1,200 Descending FlightAware ADS-B
Sat 11:50:27 AM -5.9080 107.1660 231° Southwest 287 330 8,200 -1,309 Descending FlightAware ADS-B
Sat 11:50:52 AM -5.9290 107.1410 230° Southwest 284 327 7,600 -1,200 Descending FlightAware ADS-B
Sat 11:51:22 AM -5.9540 107.1100 231° Southwest 284 327 7,100 -764 Descending FlightAware ADS-B
Sat 11:51:47 AM -5.9680 107.0810 244° Southwest 278 320 6,900 -655 Descending FlightAware ADS-B
Sat 11:52:17 AM -5.9820 107.0460 248° West 264 304 6,500 -1,000 Descending FlightAware ADS-B
Sat 11:52:47 AM -5.9960 107.0120 248° West 255 293 5,900 -1,200 Descending FlightAware ADS-B
Sat 11:53:12 AM -6.0050 106.9870 250° West 245 282 5,400 -1,091 Descending FlightAware ADS-B
Sat 11:53:42 AM -6.0180 106.9560 247° West 231 266 4,900 -873 Descending FlightAware ADS-B
Sat 11:54:07 AM -6.0280 106.9310 248° West 232 267 4,600 -750 Descending FlightAware ADS-B
Sat 11:54:22 AM -6.0340 106.9150 249° West 230 265 4,400 -400 Descending FlightAware ADS-B
Sat 11:54:52 AM -6.0460 106.8860 247° West 220 253 4,300 -436 Descending FlightAware ADS-B
Sat 11:55:17 AM -6.0550 106.8630 249° West 213 245 4,000 -982 Descending FlightAware ADS-B
Sat 11:55:47 AM -6.0660 106.8360 248° West 210 242 3,400 -1,091 Descending FlightAware ADS-B
Sat 11:56:12 AM -6.0750 106.8130 249° West 207 238 3,000 -982 Descending FlightAware ADS-B
Sat 11:56:42 AM -6.0840 106.7900 249° West 194 223 2,500 -1,000 Descending FlightAware ADS-B
Sat 11:57:12 AM -6.0950 106.7640 247° West 187 215 2,000 -1,000 Descending FlightAware ADS-B
Sat 11:59:00 AM -6.1256 106.6559 254° West  Level Estimated
Sat 12:00:00 PM -6.1256 106.6559 315° West  Level Estimated
Sat 12:01:00 PM -6.1256 106.6559 315° West  Level Estimated
Sat 12:02:00 PM -6.1256 106.6559 315° West  Level Estimated
Sat 12:03:00 PM -6.1256 106.6559 315° West  Level Estimated
Sat 12:04:00 PM -6.1256 106.6559 315° West  Level Estimated
Sat 12:05:00 PM -6.1256 106.6559 315° West  Level Estimated
Sat 12:06:00 PM -6.1256 106.6559 315° West  Level Estimated
Sat 12:07:00 PM -6.1256 106.6559 315° West  Level Estimated
Sat 12:08:00 PM -6.1256 106.6559 315° West  Level Estimated
Sat 12:09:00 PM -6.1256 106.6559 315° West  Level Estimated
Sat 12:10:00 PM -6.1256 106.6559 315° West  Level Estimated
Sat 12:11:00 PM -6.1256 106.6559 315° West  Level Estimated
Sat 12:12:00 PM -6.1256 106.6559 315° West  Level Estimated
Sat 12:13:00 PM -6.1256 106.6559 315° West  Level Estimated
Sat 12:14:00 PM -6.1256 106.6559 315° West  Level Estimated
Sat 12:15:00 PM -6.1256 106.6559 315° West  Level Estimated
Sat 12:16:00 PM -6.1256 106.6559 315° West  Level Estimated

Login

Don't have an account? Register now (free) for customized features, flight alerts, and more!